Joe Foss Field Airport
KFSD : now visible

Airfield :











YOU CAN JOIN US ON...

 
LOGIN :

Register | Disclaimer

   EN    FR    IT 

 









Legend :    VFR   Marginal VFR   IFR   Intensive IFR   Very Intensive IFR
Visi :
Ceiling :
>= 8 km
>= 3000ft
5 to 8 km
1000 to 3000 ft
1500m to 5 km
500 to 1000 ft
800 to 1500m
200 to 500 ft
< 800m
< 200 ft
Symbols :   Thunderstorms  Fog  Heavy snow  Heavy precipitations  Wind > 20 kt






- Airport Elevation : 1429 ft
- IATA code : FSD


KFSD - Joe Foss Field

CURRENT METAR :
  • 050656Z AUTO 00000KT 7SM CLR 22/19 A3003 RMK AO2 SLP157 T02220189

EXPIRED METARs :
  • 050556Z AUTO 00000KT 5SM HZ CLR 23/19 A3002 RMK AO2 SLP154 T02280194 10300 20222 403110183 58003
  • 050456Z 00000KT 6SM HZ SCT250 23/19 A3003 RMK AO2 SLP159 T02280194

TAF KFSD
Valid from the 05 at 06:00 until the 06 at 06:00 UTC


050540Z 0506/0606 16005KT P6SM SKC
FM051600 18010G16KT P6SM SKC
FM060200 18008KT P6SM SKC
KZMP FIR / North America



MET'MAP, your aeronautical weather chart ! - Copyright ORBIFLY December 2007 - Disclaimer

ORBIFLY MET'MAP TEAM :

Programming & Development : Alexandra Zaïnal
Concept & original design : Baudouin d'Aumeries
Assistance for programming : Marc-Olivier Méhu
Technical & hardware support : Manuel Goepfert

Contact : metmap@orbifly.com




SOURCES & CREDITS :

   NOAA       Earth
Advisory